Time;durP1;ratioP1;P1;durP2;ratioP2;P2;SDS_P1;SDS_P2;PMS_P1;PMS_P2;Temp;Humidity;BMP_temperature;BMP_pressure;BME280_temperature;BME280_humidity;BME280_pressure;Samples;Min_cycle;Max_cycle;Signal;HPM_P1;HPM_P2
2022/03/29 11:45:06;;;;;;;71.57;45.20;;;;;;;;;;6186167;22;20373;-85
2022/03/29 11:47:31;;;;;;;66.65;43.97;;;;;;;;;;6187110;23;20049;-85
2022/03/29 11:49:57;;;;;;;68.35;44.55;;;;;;;;;;6187151;23;20408;-85
2022/03/29 11:52:32;;;;;;;62.88;43.38;;;;;;;;;;6186963;23;20088;-85
2022/03/29 16:44:39;;;;;;;58.03;38.07;;;;;;;;;;6154285;23;20009;-90
2022/03/29 16:47:46;;;;;;;61.78;38.92;;;;;;;;;;6229319;23;20021;-87
2022/03/29 16:50:12;;;;;;;61.10;40.42;;;;;;;;;;6194290;23;20007;-86
2022/03/29 16:52:38;;;;;;;62.45;40.60;;;;;;;;;;6163541;23;20103;-86
2022/03/29 16:55:04;;;;;;;58.75;39.20;;;;;;;;;;6191421;23;20036;-94
2022/03/29 16:57:29;;;;;;;62.17;40.05;;;;;;;;;;6196021;23;20427;-85
2022/03/29 16:59:56;;;;;;;58.50;38.65;;;;;;;;;;6190078;23;20076;-84
2022/03/29 17:02:22;;;;;;;55.60;37.33;;;;;;;;;;6190006;23;20036;-86
2022/03/29 17:04:49;;;;;;;59.97;39.47;;;;;;;;;;6189935;23;20079;-86
2022/03/29 17:07:14;;;;;;;56.28;37.47;;;;;;;;;;6190810;23;19993;-85
2022/03/29 17:09:39;;;;;;;58.53;37.80;;;;;;;;;;6191431;23;20001;-87
2022/03/29 17:12:06;;;;;;;59.60;38.08;;;;;;;;;;6190404;23;20071;-86
2022/03/29 17:14:34;;;;;;;54.60;35.85;;;;;;;;;;6190455;23;20015;-86
2022/03/29 17:17:00;;;;;;;55.47;37.72;;;;;;;;;;6162330;23;20009;-86
2022/03/29 17:22:15;;;;;;;55.92;36.88;;;;;;;;;;6191095;23;20048;-85
2022/03/29 17:24:41;;;;;;;53.20;36.15;;;;;;;;;;6190622;23;20001;-86
2022/03/29 17:27:16;;;;;;;55.95;36.58;;;;;;;;;;6190176;23;20072;-85
2022/03/29 17:29:42;;;;;;;55.83;35.83;;;;;;;;;;6188699;23;20001;-85
2022/03/29 17:32:07;;;;;;;54.90;35.22;;;;;;;;;;6162422;23;20008;-86
2022/03/29 17:34:51;;;;;;;55.05;36.45;;;;;;;;;;6189662;23;20005;-88
2022/03/29 17:37:17;;;;;;;56.95;35.33;;;;;;;;;;6188432;23;20381;-90
2022/03/29 17:39:43;;;;;;;53.38;36.05;;;;;;;;;;6163787;23;20001;-92
2022/03/29 17:42:09;;;;;;;57.88;37.10;;;;;;;;;;6163202;23;20020;-86
2022/03/29 17:44:36;;;;;;;52.30;35.72;;;;;;;;;;6171232;23;20016;-93
2022/03/29 17:47:02;;;;;;;61.67;39.35;;;;;;;;;;6163953;23;20341;-86
2022/03/29 17:49:28;;;;;;;54.45;36.50;;;;;;;;;;6162394;23;20001;-86
2022/03/29 17:51:53;;;;;;;59.30;38.33;;;;;;;;;;6189955;23;20081;-87
2022/03/29 17:54:20;;;;;;;59.60;37.85;;;;;;;;;;6161729;23;20004;-85
2022/03/29 17:56:45;;;;;;;56.92;35.60;;;;;;;;;;6163849;23;20005;-84
2022/03/29 17:59:11;;;;;;;51.90;36.08;;;;;;;;;;6189600;23;20008;-90
2022/03/29 18:01:37;;;;;;;57.20;36.10;;;;;;;;;;6162172;23;20013;-85
2022/03/29 18:04:07;;;;;;;54.72;35.50;;;;;;;;;;6188372;23;20001;-84
2022/03/29 18:06:33;;;;;;;59.45;38.15;;;;;;;;;;6189604;23;20005;-84
2022/03/29 18:08:59;;;;;;;55.50;36.20;;;;;;;;;;6189600;23;20000;-85
2022/03/29 18:11:25;;;;;;;51.35;34.22;;;;;;;;;;6186702;23;20004;-86
2022/03/29 18:13:53;;;;;;;57.03;36.10;;;;;;;;;;6188758;23;20001;-92
2022/03/29 18:16:19;;;;;;;59.90;38.03;;;;;;;;;;6164966;23;20087;-96
2022/03/29 18:18:44;;;;;;;58.08;40.55;;;;;;;;;;6193516;23;20302;-86
2022/03/29 18:21:11;;;;;;;52.88;33.72;;;;;;;;;;6160234;23;20005;-88
2022/03/29 18:23:39;;;;;;;51.83;34.08;;;;;;;;;;6159936;23;20056;-95
2022/03/29 18:26:07;;;;;;;53.70;34.13;;;;;;;;;;6160622;23;20011;-87
2022/03/29 18:28:32;;;;;;;50.42;32.17;;;;;;;;;;6160414;23;20012;-87
2022/03/29 18:30:58;;;;;;;55.67;35.65;;;;;;;;;;6159172;23;20017;-88
2022/03/29 18:33:24;;;;;;;49.83;34.60;;;;;;;;;;6185795;23;20011;-89
2022/03/29 18:35:50;;;;;;;54.70;37.20;;;;;;;;;;6160169;23;20100;-88
2022/03/29 18:38:17;;;;;;;55.92;36.33;;;;;;;;;;6160223;23;20428;-90
2022/03/29 18:40:43;;;;;;;59.42;37.92;;;;;;;;;;6159736;23;20447;-89
2022/03/29 18:43:09;;;;;;;61.28;39.10;;;;;;;;;;6159867;23;20008;-88
2022/03/29 18:45:36;;;;;;;53.25;35.22;;;;;;;;;;6160230;23;20005;-87
2022/03/29 18:48:03;;;;;;;50.58;34.67;;;;;;;;;;6160306;23;20013;-90
2022/03/29 18:50:29;;;;;;;57.55;37.00;;;;;;;;;;6162214;23;20008;-87
2022/03/29 18:52:57;;;;;;;56.42;36.25;;;;;;;;;;6160460;23;20013;-92
2022/03/29 18:55:23;;;;;;;55.72;36.03;;;;;;;;;;6186906;23;20012;-87
2022/03/29 18:57:49;;;;;;;54.60;36.65;;;;;;;;;;6160684;23;20032;-91
2022/03/29 19:00:15;;;;;;;62.13;37.63;;;;;;;;;;6161592;23;20431;-92
2022/03/29 19:02:42;;;;;;;56.55;36.15;;;;;;;;;;6160516;23;20013;-85
2022/03/29 19:05:09;;;;;;;53.03;34.95;;;;;;;;;;6188108;23;20028;-95
2022/03/29 19:07:37;;;;;;;52.05;33.85;;;;;;;;;;6186467;23;20025;-92
2022/03/29 19:10:04;;;;;;;54.67;35.35;;;;;;;;;;6160501;23;20387;-87
2022/03/29 19:12:29;;;;;;;50.05;33.70;;;;;;;;;;6160495;23;20009;-94
2022/03/29 19:14:55;;;;;;;54.15;34.40;;;;;;;;;;6160442;23;20002;-85
2022/03/29 19:17:21;;;;;;;53.47;33.65;;;;;;;;;;6160182;23;20088;-85
2022/03/29 19:19:47;;;;;;;48.95;31.48;;;;;;;;;;6186202;23;20028;-95
2022/03/29 19:22:16;;;;;;;51.47;34.95;;;;;;;;;;6162191;23;20013;-89
2022/03/29 19:24:49;;;;;;;52.03;34.50;;;;;;;;;;6164524;23;20052;-88
2022/03/29 19:27:27;;;;;;;;;;;;;;;;;;;;;
2022/03/29 19:30:10;;;;;;;55.85;35.30;;;;;;;;;;6187700;23;20092;-95
2022/03/29 19:32:39;;;;;;;51.13;33.95;;;;;;;;;;6160044;23;20011;-96
2022/03/29 19:35:06;;;;;;;52.10;34.70;;;;;;;;;;6165166;23;20005;-94
2022/03/29 19:37:32;;;;;;;51.90;32.97;;;;;;;;;;6177514;23;20062;-95
2022/03/29 19:39:58;;;;;;;53.58;36.05;;;;;;;;;;6166183;23;20016;-94
2022/03/29 19:42:29;;;;;;;53.65;35.17;;;;;;;;;;6165052;23;20044;-96
2022/03/29 19:45:03;;;;;;;53.50;33.92;;;;;;;;;;6165091;23;20008;-96
2022/03/29 19:47:31;;;;;;;47.55;32.35;;;;;;;;;;6166738;23;20028;-95
2022/03/29 19:50:10;;;;;;;49.40;32.47;;;;;;;;;;6164324;23;20029;-96
2022/03/29 19:52:38;;;;;;;62.58;39.83;;;;;;;;;;6162326;23;20049;-95
2022/03/29 19:55:05;;;;;;;64.40;40.70;;;;;;;;;;6162226;23;20064;-96
2022/03/29 19:57:30;;;;;;;57.33;36.53;;;;;;;;;;6164185;23;20057;-95
2022/03/29 19:59:56;;;;;;;53.30;35.72;;;;;;;;;;6162671;23;20032;-93
2022/03/29 20:02:23;;;;;;;47.88;31.50;;;;;;;;;;6160262;23;20012;-90
2022/03/29 20:04:49;;;;;;;48.75;31.73;;;;;;;;;;6161692;23;20443;-87
2022/03/29 20:07:16;;;;;;;59.50;37.53;;;;;;;;;;6161623;23;20135;-88
2022/03/29 20:09:42;;;;;;;51.90;32.55;;;;;;;;;;6161446;23;20005;-88
2022/03/29 20:12:08;;;;;;;53.85;33.75;;;;;;;;;;6161934;23;20044;-89
2022/03/29 20:14:34;;;;;;;53.95;34.25;;;;;;;;;;6161449;23;20073;-89
2022/03/29 20:16:59;;;;;;;49.92;33.20;;;;;;;;;;6161465;23;20040;-88
2022/03/29 20:19:26;;;;;;;53.03;34.33;;;;;;;;;;6161281;23;20412;-88
2022/03/29 20:21:53;;;;;;;52.40;33.85;;;;;;;;;;6161361;23;20088;-89
2022/03/29 20:24:19;;;;;;;54.47;32.92;;;;;;;;;;6161498;23;20421;-92
2022/03/29 20:26:45;;;;;;;52.65;33.15;;;;;;;;;;6161227;23;20036;-88
2022/03/29 20:29:14;;;;;;;52.20;34.05;;;;;;;;;;6161469;23;20059;-87
2022/03/29 20:31:49;;;;;;;53.40;33.75;;;;;;;;;;6161256;23;20013;-91
2022/03/29 20:34:16;;;;;;;53.20;33.17;;;;;;;;;;6160635;23;20009;-86
2022/03/29 20:36:41;;;;;;;52.85;34.17;;;;;;;;;;6161247;23;20033;-87
2022/03/29 20:39:07;;;;;;;52.63;33.42;;;;;;;;;;6161268;23;20012;-91
2022/03/29 20:41:34;;;;;;;46.65;31.27;;;;;;;;;;6161257;23;20029;-88
2022/03/29 20:44:00;;;;;;;48.58;31.80;;;;;;;;;;6161216;23;20008;-88
2022/03/29 20:46:25;;;;;;;47.67;30.90;;;;;;;;;;6160833;23;20416;-88
2022/03/29 20:48:51;;;;;;;41.75;28.98;;;;;;;;;;6160818;23;20024;-88
2022/03/29 20:51:17;;;;;;;44.75;29.35;;;;;;;;;;6161147;23;20008;-88
2022/03/29 20:53:47;;;;;;;44.70;28.70;;;;;;;;;;6161203;23;20013;-88
2022/03/29 20:56:16;;;;;;;42.88;28.23;;;;;;;;;;6160948;23;20075;-87
2022/03/29 20:58:42;;;;;;;47.42;30.60;;;;;;;;;;6161155;23;20008;-92
2022/03/29 21:01:08;;;;;;;49.97;32.33;;;;;;;;;;6161064;23;20012;-88
2022/03/29 21:03:33;;;;;;;48.65;32.50;;;;;;;;;;6161225;23;20005;-94
2022/03/29 21:05:59;;;;;;;53.08;34.35;;;;;;;;;;6160878;23;20008;-91
2022/03/29 21:08:25;;;;;;;49.85;34.60;;;;;;;;;;6161281;23;20101;-91
2022/03/29 21:10:52;;;;;;;50.17;32.97;;;;;;;;;;6161207;23;20012;-91
2022/03/29 21:13:22;;;;;;;50.25;33.38;;;;;;;;;;6161059;23;20013;-94
2022/03/29 21:15:47;;;;;;;;;;;;;;;;;;6161652;23;20066;-94
2022/03/29 21:18:13;;;;;;;49.53;33.85;;;;;;;;;;6162144;23;19944;-93
2022/03/29 21:20:40;;;;;;;47.38;30.90;;;;;;;;;;6186046;23;20083;-94
2022/03/29 21:23:29;;;;;;;50.03;33.28;;;;;;;;;;6161118;23;20013;-93
2022/03/29 21:25:59;;;;;;;50.28;33.20;;;;;;;;;;6161283;23;20429;-95
2022/03/29 21:28:26;;;;;;;49.28;32.72;;;;;;;;;;6161200;23;20395;-93
2022/03/29 21:30:51;;;;;;;55.08;34.63;;;;;;;;;;6160963;23;20029;-95
2022/03/29 21:33:18;;;;;;;51.40;33.28;;;;;;;;;;6161122;23;20016;-93
2022/03/29 21:35:44;;;;;;;46.25;30.63;;;;;;;;;;6160945;23;20001;-95
2022/03/29 21:38:09;;;;;;;45.55;30.55;;;;;;;;;;6160993;23;20432;-92
2022/03/29 21:40:36;;;;;;;41.60;28.98;;;;;;;;;;6160978;23;20012;-96
2022/03/29 21:43:03;;;;;;;48.17;31.80;;;;;;;;;;6160931;23;20187;-95
2022/03/29 21:45:29;;;;;;;46.08;29.98;;;;;;;;;;6160868;23;20024;-92
2022/03/29 21:47:54;;;;;;;47.25;30.77;;;;;;;;;;6160593;23;20001;-94
2022/03/29 21:50:20;;;;;;;45.85;30.50;;;;;;;;;;6160893;23;20032;-93
2022/03/29 21:52:45;;;;;;;43.58;29.67;;;;;;;;;;6161271;23;20401;-92
2022/03/29 21:55:11;;;;;;;42.40;27.77;;;;;;;;;;6161237;23;20001;-94
2022/03/29 21:57:36;;;;;;;41.92;27.92;;;;;;;;;;6161071;23;20037;-95
2022/03/29 22:00:04;;;;;;;43.25;28.83;;;;;;;;;;6160797;23;20421;-93
2022/03/29 22:02:29;;;;;;;42.45;28.55;;;;;;;;;;6160907;23;20070;-93
2022/03/29 22:04:56;;;;;;;44.75;28.00;;;;;;;;;;6161044;23;20089;-96
2022/03/29 22:07:21;;;;;;;44.60;28.70;;;;;;;;;;6161063;23;20012;-92
2022/03/29 22:09:47;;;;;;;39.25;27.25;;;;;;;;;;6160857;23;20325;-92
2022/03/29 22:12:13;;;;;;;46.13;29.85;;;;;;;;;;6161064;23;20340;-90
2022/03/29 22:14:40;;;;;;;50.05;31.92;;;;;;;;;;6187350;23;20005;-93
2022/03/29 22:17:05;;;;;;;52.20;33.60;;;;;;;;;;6160765;23;20013;-93
2022/03/29 22:19:31;;;;;;;51.67;33.30;;;;;;;;;;6161230;23;20436;-90
